createdAt,value
2023-05-16T00:01:03.704Z,95286.44
2023-05-16T00:06:06.342Z,95272.47
2023-05-16T00:11:09.025Z,95276.81
2023-05-16T00:16:12.168Z,95278.50
2023-05-16T00:21:14.893Z,95276.56
2023-05-16T00:26:17.548Z,95275.78
2023-05-16T00:31:20.197Z,95265.84
2023-05-16T00:36:23.935Z,95267.78
2023-05-16T00:41:26.671Z,95264.59
2023-05-16T00:46:29.497Z,95270.00
2023-05-16T00:51:32.562Z,95262.75
2023-05-16T00:56:35.396Z,95265.69
2023-05-16T01:01:38.243Z,95268.97
2023-05-16T01:06:41.019Z,95268.66
2023-05-16T01:11:43.427Z,95271.84
2023-05-16T01:16:46.280Z,95271.53
2023-05-16T01:21:48.995Z,95263.47
2023-05-16T01:26:51.286Z,95255.22
2023-05-16T01:31:53.746Z,95251.25
2023-05-16T01:36:56.104Z,95258.66
2023-05-16T01:41:58.425Z,95252.78
2023-05-16T01:47:01.225Z,95254.63
2023-05-16T01:52:04.228Z,95245.00
2023-05-16T01:57:08.252Z,95238.59
2023-05-16T02:02:11.154Z,95241.81
2023-05-16T02:07:14.944Z,95247.19
2023-05-16T02:12:17.331Z,95249.06
2023-05-16T02:17:20.122Z,95260.63
2023-05-16T02:22:22.526Z,95260.63
2023-05-16T02:27:24.983Z,95257.44
2023-05-16T02:32:27.320Z,95255.34
2023-05-16T02:37:29.654Z,95265.22
2023-05-16T02:42:32.098Z,95257.91
2023-05-16T02:47:34.441Z,95249.31
2023-05-16T02:52:36.761Z,95250.63
2023-05-16T02:57:39.075Z,95249.03
2023-05-16T03:02:41.489Z,95251.44
2023-05-16T03:07:43.833Z,95246.88
2023-05-16T03:12:46.482Z,95248.84
2023-05-16T03:17:49.147Z,95257.19
2023-05-16T03:22:51.553Z,95254.00
2023-05-16T03:27:53.946Z,95252.34
2023-05-16T03:32:56.591Z,95247.03
2023-05-16T03:37:59.253Z,95252.97
2023-05-16T03:43:01.753Z,95251.03
2023-05-16T03:48:04.164Z,95247.28
2023-05-16T03:53:06.505Z,95240.88
2023-05-16T03:58:08.932Z,95245.19
2023-05-16T04:03:11.454Z,95244.38
2023-05-16T04:08:13.795Z,95245.97
2023-05-16T04:13:16.298Z,95251.03
2023-05-16T04:18:18.639Z,95247.28
2023-05-16T04:23:20.958Z,95252.44
2023-05-16T04:28:23.267Z,95253.69
2023-05-16T04:33:25.615Z,95248.03
2023-05-16T04:38:27.953Z,95256.06
2023-05-16T04:43:30.342Z,95261.66
2023-05-16T04:48:32.639Z,95254.81
2023-05-16T04:53:34.983Z,95239.84
2023-05-16T04:58:37.369Z,95241.97
2023-05-16T05:03:40.372Z,95241.00
2023-05-16T05:08:42.953Z,95236.94
2023-05-16T05:13:45.723Z,95252.84
2023-05-16T05:18:48.118Z,95245.97
2023-05-16T05:23:50.945Z,95247.06
2023-05-16T05:29:04.793Z,95246.72
2023-05-16T05:34:08.427Z,95234.38
2023-05-16T05:39:10.770Z,95245.13
2023-05-16T05:44:13.059Z,95242.72
2023-05-16T05:49:15.922Z,95242.53
2023-05-16T05:54:18.544Z,95248.19
2023-05-16T05:59:20.870Z,95243.56
2023-05-16T06:04:23.148Z,95239.56
2023-05-16T06:09:25.804Z,95231.25
2023-05-16T06:14:28.089Z,95231.44
2023-05-16T06:19:30.811Z,95233.81
2023-05-16T06:24:33.228Z,95223.44
2023-05-16T06:29:35.960Z,95221.91
2023-05-16T06:34:38.284Z,95226.78
2023-05-16T06:39:40.996Z,95218.91
2023-05-16T06:44:43.770Z,95229.47
2023-05-16T06:49:46.103Z,95237.56
2023-05-16T06:54:48.922Z,95232.75
2023-05-16T06:59:51.250Z,95240.72
2023-05-16T07:04:53.570Z,95226.53
2023-05-16T07:09:55.976Z,95229.06
2023-05-16T07:14:58.346Z,95225.16
2023-05-16T07:20:04.377Z,95224.97
2023-05-16T07:25:12.454Z,95221.47
2023-05-16T07:30:14.965Z,95223.19
2023-05-16T07:35:17.338Z,95221.63
2023-05-16T07:40:21.265Z,95254.69
2023-05-16T07:45:23.620Z,95263.75
2023-05-16T07:50:26.412Z,95283.28
2023-05-16T07:55:29.241Z,95300.78
2023-05-16T08:00:32.321Z,95298.00
2023-05-16T08:05:34.845Z,95304.25
2023-05-16T08:10:37.596Z,95312.81
2023-05-16T08:15:40.054Z,95325.81
2023-05-16T08:20:42.820Z,95312.50
2023-05-16T08:25:45.803Z,95315.56
2023-05-16T08:30:48.484Z,95314.88
2023-05-16T08:35:52.893Z,95314.50
2023-05-16T08:40:55.309Z,95314.94
2023-05-16T08:45:57.813Z,95307.28
2023-05-16T08:51:00.186Z,95307.94
2023-05-16T08:56:02.559Z,95311.66
2023-05-16T09:01:09.005Z,95297.22
2023-05-16T09:06:11.940Z,95287.28
2023-05-16T09:11:14.493Z,95288.31
2023-05-16T09:16:17.201Z,95289.66
2023-05-16T09:21:19.813Z,95277.03
2023-05-16T09:26:22.949Z,95282.19
2023-05-16T09:31:26.763Z,95271.03
2023-05-16T09:36:29.347Z,95289.81
2023-05-16T09:41:31.796Z,95281.63
2023-05-16T09:46:34.457Z,95283.25
2023-05-16T09:51:36.910Z,95292.69
2023-05-16T09:56:39.271Z,95288.00
2023-05-16T10:01:41.990Z,95284.81
2023-05-16T10:06:44.397Z,95280.63
2023-05-16T10:11:46.784Z,95279.00
2023-05-16T10:16:49.801Z,95279.06
2023-05-16T10:21:52.496Z,95289.81
2023-05-16T10:26:54.871Z,95290.47
2023-05-16T10:31:57.299Z,95305.84
2023-05-16T10:37:00.084Z,95312.69
2023-05-16T10:42:03.072Z,95323.50
2023-05-16T10:47:05.562Z,95315.03
2023-05-16T10:52:08.132Z,95334.00
2023-05-16T10:57:10.519Z,95337.72
2023-05-16T11:02:12.952Z,95335.38
2023-05-16T11:07:15.387Z,95339.31
2023-05-16T11:12:18.020Z,95338.63
2023-05-16T11:17:20.753Z,95338.41
2023-05-16T11:22:23.274Z,95334.63
2023-05-16T11:27:25.911Z,95342.22
2023-05-16T11:32:28.285Z,95333.31
2023-05-16T11:37:30.698Z,95326.72
2023-05-16T11:42:34.367Z,95320.56
2023-05-16T11:47:37.584Z,95334.84
2023-05-16T11:52:40.275Z,95331.47
2023-05-16T11:57:44.735Z,95322.25
2023-05-16T12:02:48.303Z,95298.00
2023-05-16T12:07:51.163Z,95283.59
2023-05-16T12:12:54.437Z,95282.03
2023-05-16T12:17:56.945Z,95284.00
2023-05-16T12:22:59.515Z,95291.59
2023-05-16T12:28:01.948Z,95276.75
2023-05-16T12:33:07.612Z,95273.06
2023-05-16T12:38:10.548Z,95275.69
2023-05-16T12:43:12.921Z,95273.44
2023-05-16T12:48:15.416Z,95283.44
2023-05-16T12:53:17.946Z,95289.41
2023-05-16T12:58:21.207Z,95285.50
2023-05-16T13:03:23.713Z,95281.25
2023-05-16T13:08:26.268Z,95272.75
2023-05-16T13:13:35.982Z,95270.41
2023-05-16T13:18:39.000Z,95286.34
2023-05-16T13:23:41.418Z,95281.97
2023-05-16T13:28:43.911Z,95291.41
2023-05-16T13:33:46.791Z,95295.13
2023-05-16T13:38:49.175Z,95340.53
2023-05-16T13:43:51.513Z,95338.59
2023-05-16T13:48:53.846Z,95351.66
2023-05-16T13:53:56.621Z,95338.03
2023-05-16T13:59:05.924Z,95333.56
2023-05-16T14:04:09.517Z,95341.69
2023-05-16T14:09:13.285Z,95345.03
2023-05-16T14:14:15.773Z,95347.22
2023-05-16T14:19:19.638Z,95355.81
2023-05-16T14:24:22.466Z,95351.34
2023-05-16T14:29:25.414Z,95353.72
2023-05-16T14:34:27.799Z,95356.63
2023-05-16T14:39:30.140Z,95365.75
2023-05-16T14:44:32.489Z,95374.66
2023-05-16T14:49:34.834Z,95381.81
2023-05-16T14:54:37.792Z,95381.47
2023-05-16T14:59:40.158Z,95384.19
2023-05-16T15:04:42.694Z,95397.53
2023-05-16T15:09:45.099Z,95396.22
2023-05-16T15:14:47.434Z,95408.03
2023-05-16T15:19:49.847Z,95407.22
2023-05-16T15:24:52.453Z,95408.88
2023-05-16T15:29:54.864Z,95410.75
2023-05-16T15:34:57.225Z,95411.50
2023-05-16T15:39:59.615Z,95415.31
2023-05-16T15:45:01.978Z,95422.31
2023-05-16T15:50:04.379Z,95421.78
2023-05-16T15:55:06.724Z,95426.56
2023-05-16T16:00:09.098Z,95425.81
2023-05-16T16:05:11.439Z,95417.41
2023-05-16T16:10:14.007Z,95419.66
2023-05-16T16:15:16.407Z,95426.44
2023-05-16T16:20:18.888Z,95429.72
2023-05-16T16:25:21.374Z,95430.28
2023-05-16T16:30:23.861Z,95433.78
2023-05-16T16:35:26.482Z,95434.59
2023-05-16T16:40:29.440Z,95444.72
2023-05-16T16:45:32.106Z,95448.47
2023-05-16T16:50:34.866Z,95446.34
2023-05-16T16:55:40.629Z,95464.69
2023-05-16T17:00:43.542Z,95459.25
2023-05-16T17:05:45.995Z,95468.34
2023-05-16T17:10:48.500Z,95475.34
2023-05-16T17:15:50.888Z,95483.41
2023-05-16T17:20:53.687Z,95479.63
2023-05-16T17:25:56.335Z,95482.28
2023-05-16T17:30:58.999Z,95478.59
2023-05-16T17:36:02.096Z,95479.09
2023-05-16T17:41:04.872Z,95476.13
2023-05-16T17:46:08.278Z,95476.16
2023-05-16T17:51:11.205Z,95483.13
2023-05-16T17:56:15.106Z,95479.31
2023-05-16T18:01:17.956Z,95490.91
2023-05-16T18:06:20.734Z,95490.06
2023-05-16T18:11:23.705Z,95497.81
2023-05-16T18:16:26.448Z,95497.88
2023-05-16T18:21:28.831Z,95502.47
2023-05-16T18:26:31.288Z,95503.84
2023-05-16T18:31:34.228Z,95508.41
2023-05-16T18:36:37.310Z,95519.97
2023-05-16T18:41:39.697Z,95524.81
2023-05-16T18:46:42.442Z,95538.75
2023-05-16T18:51:44.875Z,95546.34
2023-05-16T18:56:47.207Z,95561.09
2023-05-16T19:01:49.598Z,95554.69
2023-05-16T19:06:55.087Z,95565.91
2023-05-16T19:11:57.574Z,95572.09
2023-05-16T19:17:00.053Z,95578.22
2023-05-16T19:22:02.407Z,95584.13
2023-05-16T19:27:05.194Z,95583.31
2023-05-16T19:32:07.784Z,95593.50
2023-05-16T19:37:10.166Z,95606.91
2023-05-16T19:42:12.561Z,95609.28
2023-05-16T19:47:14.971Z,95613.03
2023-05-16T19:52:17.323Z,95617.84
2023-05-16T19:57:19.755Z,95620.00
2023-05-16T20:02:24.345Z,95626.38
2023-05-16T20:07:27.469Z,95635.47
2023-05-16T20:12:30.339Z,95628.75
2023-05-16T20:17:33.043Z,95637.31
2023-05-16T20:22:38.533Z,95642.91
2023-05-16T20:27:40.930Z,95652.22
2023-05-16T20:32:43.618Z,95651.13
2023-05-16T20:37:46.037Z,95645.50
2023-05-16T20:42:49.167Z,95659.66
2023-05-16T20:47:52.052Z,95666.03
2023-05-16T20:52:54.692Z,95665.00
2023-05-16T20:57:57.176Z,95660.16
2023-05-16T21:02:59.993Z,95669.78
2023-05-16T21:08:02.949Z,95671.66
2023-05-16T21:13:05.747Z,95666.53
2023-05-16T21:18:08.677Z,95674.03
2023-05-16T21:23:11.193Z,95674.84
2023-05-16T21:28:13.981Z,95666.53
2023-05-16T21:33:16.514Z,95673.75
2023-05-16T21:38:19.284Z,95692.72
2023-05-16T21:43:21.637Z,95695.41
2023-05-16T21:48:24.303Z,95702.34
2023-05-16T21:53:26.813Z,95697.78
2023-05-16T21:58:29.181Z,95706.06
2023-05-16T22:03:31.732Z,95705.00
2023-05-16T22:08:34.401Z,95704.91
2023-05-16T22:13:36.786Z,95717.22
2023-05-16T22:18:39.268Z,95728.75
2023-05-16T22:23:41.727Z,95736.22
2023-05-16T22:28:44.110Z,95718.31
2023-05-16T22:33:46.802Z,95721.53
2023-05-16T22:38:49.230Z,95728.94
2023-05-16T22:43:51.538Z,95727.91
2023-05-16T22:48:54.014Z,95724.88
2023-05-16T22:53:56.362Z,95725.13
2023-05-16T22:58:58.704Z,95724.06
2023-05-16T23:04:01.977Z,95726.16
2023-05-16T23:09:04.965Z,95735.19
2023-05-16T23:14:07.359Z,95739.47
2023-05-16T23:19:09.937Z,95730.59
2023-05-16T23:24:12.804Z,95738.59
2023-05-16T23:29:15.652Z,95738.59
2023-05-16T23:34:18.399Z,95746.56
2023-05-16T23:39:21.765Z,95748.16
2023-05-16T23:44:24.458Z,95747.16
2023-05-16T23:49:27.347Z,95752.19
2023-05-16T23:54:30.226Z,95755.06
2023-05-16T23:59:33.304Z,95755.63
